createdAt,value
2023-04-18T00:01:24.996Z,7.13
2023-04-18T00:03:52.328Z,7.55
2023-04-18T00:06:22.130Z,7.50
2023-04-18T00:08:49.321Z,7.50
2023-04-18T00:11:16.345Z,7.72
2023-04-18T00:13:44.341Z,6.95
2023-04-18T00:16:13.315Z,7.47
2023-04-18T00:18:40.613Z,7.68
2023-04-18T00:21:08.692Z,7.35
2023-04-18T00:23:36.091Z,7.55
2023-04-18T00:26:03.410Z,8.27
2023-04-18T00:28:30.651Z,7.95
2023-04-18T00:30:57.657Z,8.68
2023-04-18T00:33:24.762Z,7.70
2023-04-18T00:35:53.443Z,7.97
2023-04-18T00:38:20.493Z,8.10
2023-04-18T00:40:48.319Z,7.80
2023-04-18T00:43:17.013Z,8.13
2023-04-18T00:45:44.570Z,8.18
2023-04-18T00:48:12.064Z,7.88
2023-04-18T00:50:41.685Z,8.35
2023-04-18T00:53:11.181Z,7.78
2023-04-18T00:55:39.607Z,7.78
2023-04-18T00:58:06.901Z,7.80
2023-04-18T01:00:34.393Z,7.88
2023-04-18T01:03:01.754Z,7.95
2023-04-18T01:05:29.027Z,7.80
2023-04-18T01:08:01.064Z,8.13
2023-04-18T01:10:29.907Z,8.05
2023-04-18T01:13:23.288Z,7.57
2023-04-18T01:15:51.702Z,8.20
2023-04-18T01:18:19.167Z,8.38
2023-04-18T01:20:54.908Z,8.05
2023-04-18T01:23:21.833Z,7.97
2023-04-18T01:25:51.935Z,8.57
2023-04-18T01:28:23.749Z,7.68
2023-04-18T01:30:50.801Z,8.40
2023-04-18T01:33:17.846Z,8.38
2023-04-18T01:35:47.384Z,8.25
2023-04-18T01:38:14.434Z,8.68
2023-04-18T01:40:41.428Z,8.77
2023-04-18T01:43:08.685Z,7.82
2023-04-18T01:45:38.083Z,8.63
2023-04-18T01:48:06.071Z,8.48
2023-04-18T01:50:33.432Z,8.63
2023-04-18T01:53:00.480Z,8.07
2023-04-18T01:55:27.503Z,8.85
2023-04-18T01:57:55.216Z,8.52
2023-04-18T02:00:22.694Z,8.10
2023-04-18T02:02:50.520Z,8.52
2023-04-18T02:05:17.755Z,8.88
2023-04-18T02:07:45.526Z,8.27
2023-04-18T02:10:12.617Z,9.10
2023-04-18T02:12:39.606Z,8.85
2023-04-18T02:15:07.436Z,8.70
2023-04-18T02:17:36.747Z,8.73
2023-04-18T02:20:04.732Z,9.52
2023-04-18T02:22:31.875Z,8.93
2023-04-18T02:25:00.805Z,8.90
2023-04-18T02:27:27.900Z,8.35
2023-04-18T02:29:57.185Z,8.35
2023-04-18T02:32:24.883Z,8.85
2023-04-18T02:34:51.949Z,8.68
2023-04-18T02:37:19.282Z,8.88
2023-04-18T02:39:46.369Z,8.77
2023-04-18T02:42:13.479Z,8.38
2023-04-18T02:44:40.620Z,8.65
2023-04-18T02:47:07.667Z,8.43
2023-04-18T02:49:38.294Z,9.48
2023-04-18T02:52:05.383Z,9.68
2023-04-18T02:54:32.363Z,9.48
2023-04-18T02:57:05.591Z,9.10
2023-04-18T02:59:53.335Z,9.07
2023-04-18T03:02:58.752Z,9.23
2023-04-18T03:05:35.613Z,9.48
2023-04-18T03:08:04.967Z,8.75
2023-04-18T03:10:32.036Z,8.50
2023-04-18T03:12:59.162Z,8.38
2023-04-18T03:15:28.247Z,9.30
2023-04-18T03:17:55.374Z,9.73
2023-04-18T03:20:23.801Z,9.15
2023-04-18T03:22:52.650Z,8.80
2023-04-18T03:25:24.324Z,8.70
2023-04-18T03:27:53.612Z,9.02
2023-04-18T03:30:22.928Z,8.88
2023-04-18T03:32:56.204Z,9.18
2023-04-18T03:35:23.719Z,8.48
2023-04-18T03:37:51.029Z,8.50
2023-04-18T03:40:26.531Z,9.05
2023-04-18T03:42:59.653Z,9.63
2023-04-18T03:45:27.004Z,9.35
2023-04-18T03:47:55.206Z,9.13
2023-04-18T03:50:24.445Z,9.32
2023-04-18T03:52:52.850Z,8.95
2023-04-18T03:55:20.765Z,9.40
2023-04-18T03:57:48.088Z,8.27
2023-04-18T04:00:22.846Z,8.55
2023-04-18T04:03:00.118Z,9.00
2023-04-18T04:05:28.046Z,8.25
2023-04-18T04:07:55.160Z,8.75
2023-04-18T04:10:23.178Z,7.90
2023-04-18T04:12:51.334Z,8.18
2023-04-18T04:15:19.001Z,8.13
2023-04-18T04:18:01.443Z,7.88
2023-04-18T04:20:29.088Z,7.85
2023-04-18T04:23:03.964Z,8.45
2023-04-18T04:25:34.082Z,7.78
2023-04-18T04:28:06.782Z,8.35
2023-04-18T04:30:41.712Z,8.00
2023-04-18T04:33:09.055Z,8.02
2023-04-18T04:35:36.784Z,8.43
2023-04-18T04:38:05.745Z,8.20
2023-04-18T04:40:40.356Z,8.00
2023-04-18T04:43:12.692Z,8.20
2023-04-18T04:45:42.389Z,8.45
2023-04-18T04:48:10.256Z,8.68
2023-04-18T04:50:40.366Z,8.50
2023-04-18T04:53:08.381Z,8.32
2023-04-18T04:55:36.142Z,8.48
2023-04-18T04:58:06.065Z,8.85
2023-04-18T05:00:44.223Z,8.88
2023-04-18T05:03:16.763Z,8.73
2023-04-18T05:05:48.182Z,9.13
2023-04-18T05:08:15.320Z,9.10
2023-04-18T05:10:43.346Z,8.77
2023-04-18T05:13:10.622Z,8.98
2023-04-18T05:15:37.598Z,8.90
2023-04-18T05:18:04.910Z,8.68
2023-04-18T05:20:32.050Z,8.65
2023-04-18T05:22:59.144Z,9.40
2023-04-18T05:25:35.216Z,8.65
2023-04-18T05:28:04.837Z,9.23
2023-04-18T05:30:31.985Z,8.82
2023-04-18T05:32:58.979Z,9.45
2023-04-18T05:35:26.209Z,9.00
2023-04-18T05:37:53.234Z,9.13
2023-04-18T05:40:20.416Z,8.60
2023-04-18T05:42:47.304Z,8.75
2023-04-18T05:45:14.335Z,9.10
2023-04-18T05:47:41.464Z,8.13
2023-04-18T05:50:09.221Z,8.10
2023-04-18T05:52:39.031Z,8.57
2023-04-18T05:55:07.133Z,7.70
2023-04-18T05:57:34.145Z,8.50
2023-04-18T06:00:01.088Z,8.43
2023-04-18T06:02:28.273Z,8.10
2023-04-18T06:04:56.719Z,8.85
2023-04-18T06:07:25.370Z,9.15
2023-04-18T06:09:53.976Z,7.88
2023-04-18T06:12:21.044Z,8.40
2023-04-18T06:14:49.398Z,7.80
2023-04-18T06:17:16.454Z,9.20
2023-04-18T06:19:43.392Z,7.85
2023-04-18T06:22:10.359Z,8.77
2023-04-18T06:24:37.434Z,7.80
2023-04-18T06:27:05.754Z,7.18
2023-04-18T06:29:34.658Z,7.80
2023-04-18T06:32:03.504Z,8.10
2023-04-18T06:34:30.506Z,8.05
2023-04-18T06:36:57.523Z,7.30
2023-04-18T06:39:24.661Z,7.13
2023-04-18T06:41:51.596Z,7.43
2023-04-18T06:44:28.042Z,7.03
2023-04-18T06:46:55.684Z,6.95
2023-04-18T06:49:26.492Z,7.32
2023-04-18T06:51:54.097Z,7.50
2023-04-18T06:54:21.138Z,7.20
2023-04-18T06:56:48.201Z,7.20
2023-04-18T06:59:15.270Z,6.97
2023-04-18T07:01:42.409Z,6.70
2023-04-18T07:04:09.748Z,7.03
2023-04-18T07:06:37.630Z,6.68
2023-04-18T07:09:04.675Z,6.65
2023-04-18T07:11:31.629Z,6.78
2023-04-18T07:13:58.640Z,6.85
2023-04-18T07:16:25.952Z,6.93
2023-04-18T07:18:53.046Z,6.45
2023-04-18T07:21:19.982Z,6.65
2023-04-18T07:23:46.956Z,6.20
2023-04-18T07:26:14.043Z,6.00
2023-04-18T07:28:41.083Z,5.82
2023-04-18T07:31:11.424Z,6.10
2023-04-18T07:33:38.813Z,5.90
2023-04-18T07:36:06.275Z,5.25
2023-04-18T07:38:35.267Z,5.93
2023-04-18T07:41:03.500Z,6.20
2023-04-18T07:43:30.922Z,5.50
2023-04-18T07:45:58.100Z,5.50
2023-04-18T07:48:28.115Z,5.80
2023-04-18T07:50:55.190Z,5.32
2023-04-18T07:53:22.238Z,5.80
2023-04-18T07:55:50.176Z,5.57
2023-04-18T07:58:17.748Z,5.72
2023-04-18T08:00:44.960Z,6.28
2023-04-18T08:03:13.012Z,5.82
2023-04-18T08:05:42.955Z,6.15
2023-04-18T08:08:11.876Z,5.70
2023-04-18T08:10:39.547Z,5.80
2023-04-18T08:13:06.940Z,5.68
2023-04-18T08:15:34.151Z,5.78
2023-04-18T08:18:01.913Z,5.22
2023-04-18T08:20:29.185Z,5.18
2023-04-18T08:25:26.289Z,5.47
2023-04-18T08:27:53.272Z,5.10
2023-04-18T08:30:20.489Z,5.28
2023-04-18T08:32:47.501Z,5.22
2023-04-18T08:35:14.606Z,5.00
2023-04-18T08:37:41.817Z,5.55
2023-04-18T08:40:09.181Z,5.43
2023-04-18T08:42:38.356Z,5.25
2023-04-18T08:45:07.026Z,5.15
2023-04-18T08:47:35.660Z,5.00
2023-04-18T08:50:03.185Z,4.05
2023-04-18T08:52:32.002Z,4.32
2023-04-18T08:54:58.969Z,4.88
2023-04-18T08:57:30.114Z,4.25
2023-04-18T09:00:00.685Z,4.75
2023-04-18T09:02:46.910Z,4.60
2023-04-18T09:05:19.732Z,4.90
2023-04-18T09:07:49.612Z,4.80
2023-04-18T09:10:34.161Z,4.80
2023-04-18T09:13:03.556Z,4.75
2023-04-18T09:15:31.289Z,4.53
2023-04-18T09:18:02.777Z,4.63
2023-04-18T09:20:35.852Z,4.47
2023-04-18T09:23:14.482Z,4.95
2023-04-18T09:25:44.301Z,4.78
2023-04-18T09:28:30.687Z,4.82
2023-04-18T09:31:17.897Z,5.22
2023-04-18T09:33:56.690Z,5.18
2023-04-18T09:36:31.146Z,5.20
2023-04-18T09:38:58.379Z,4.93
2023-04-18T09:41:25.437Z,5.40
2023-04-18T09:44:17.115Z,5.18
2023-04-18T09:46:47.174Z,4.57
2023-04-18T09:49:16.132Z,5.57
2023-04-18T09:51:44.791Z,4.70
2023-04-18T09:54:16.348Z,4.63
2023-04-18T09:56:50.373Z,5.10
2023-04-18T09:59:41.051Z,5.05
2023-04-18T10:02:19.695Z,4.72
2023-04-18T10:04:48.902Z,4.25
2023-04-18T10:07:17.587Z,4.82
2023-04-18T10:09:49.244Z,4.55
2023-04-18T10:12:18.454Z,4.90
2023-04-18T10:14:45.892Z,4.63
2023-04-18T10:17:14.923Z,4.60
2023-04-18T10:19:44.267Z,4.50
2023-04-18T10:22:12.250Z,3.78
2023-04-18T10:24:49.681Z,3.70
2023-04-18T10:27:18.797Z,3.38
2023-04-18T10:29:51.691Z,4.30
2023-04-18T10:32:23.453Z,4.35
2023-04-18T10:34:53.588Z,3.92
2023-04-18T10:37:20.684Z,5.00
2023-04-18T10:40:11.073Z,4.80
2023-04-18T10:42:47.112Z,4.70
2023-04-18T10:45:25.298Z,4.30
2023-04-18T10:48:32.670Z,4.93
2023-04-18T10:51:18.903Z,4.40
2023-04-18T10:53:57.450Z,5.03
2023-04-18T10:56:26.114Z,4.85
2023-04-18T10:58:53.822Z,5.10
2023-04-18T11:01:33.177Z,5.03
2023-04-18T11:04:01.290Z,5.68
2023-04-18T11:06:29.084Z,5.43
2023-04-18T11:09:13.725Z,5.80
2023-04-18T11:11:41.833Z,5.68
2023-04-18T11:14:09.009Z,5.70
2023-04-18T11:16:36.406Z,5.97
2023-04-18T11:19:23.539Z,5.75
2023-04-18T11:21:51.799Z,5.50
2023-04-18T11:24:24.098Z,5.65
2023-04-18T11:26:55.657Z,5.95
2023-04-18T11:29:22.959Z,5.90
2023-04-18T11:31:55.283Z,6.07
2023-04-18T11:34:30.743Z,6.10
2023-04-18T11:36:58.203Z,6.82
2023-04-18T11:39:25.499Z,5.82
2023-04-18T11:41:52.974Z,6.43
2023-04-18T11:44:24.922Z,6.50
2023-04-18T11:46:53.084Z,6.03
2023-04-18T11:49:32.097Z,5.75
2023-04-18T11:52:01.075Z,6.55
2023-04-18T11:54:42.198Z,6.40
2023-04-18T11:57:21.352Z,6.82
2023-04-18T11:59:56.808Z,6.60
2023-04-18T12:02:40.499Z,7.22
2023-04-18T12:05:08.188Z,6.50
2023-04-18T12:07:47.912Z,6.90
2023-04-18T12:10:28.158Z,7.20
2023-04-18T12:13:00.935Z,6.72
2023-04-18T12:15:29.810Z,7.18
2023-04-18T12:18:00.747Z,7.30
2023-04-18T12:20:39.928Z,7.40
2023-04-18T12:23:07.797Z,7.93
2023-04-18T12:25:35.083Z,7.78
2023-04-18T12:28:14.809Z,7.32
2023-04-18T12:30:42.402Z,7.65
2023-04-18T12:33:09.665Z,7.68
2023-04-18T12:35:36.720Z,8.75
2023-04-18T12:38:07.986Z,8.23
2023-04-18T12:40:35.052Z,8.80
2023-04-18T12:43:03.803Z,8.57
2023-04-18T12:45:32.900Z,8.35
2023-04-18T12:48:00.238Z,9.10
2023-04-18T12:50:27.509Z,8.63
2023-04-18T12:52:59.116Z,9.07
2023-04-18T12:55:26.996Z,8.77
2023-04-18T12:57:55.621Z,9.15
2023-04-18T13:00:28.014Z,9.32
2023-04-18T13:02:55.940Z,9.13
2023-04-18T13:05:29.165Z,8.57
2023-04-18T13:08:15.139Z,9.13
2023-04-18T13:10:43.983Z,9.80
2023-04-18T13:13:11.005Z,9.82
2023-04-18T13:15:39.756Z,10.00
2023-04-18T13:18:07.186Z,10.38
2023-04-18T13:20:34.405Z,9.98
2023-04-18T13:23:04.417Z,10.10
2023-04-18T13:25:31.642Z,10.80
2023-04-18T13:28:00.772Z,9.80
2023-04-18T13:30:28.119Z,11.13
2023-04-18T13:32:55.346Z,9.73
2023-04-18T13:35:22.474Z,10.88
2023-04-18T13:37:49.611Z,10.95
2023-04-18T13:40:16.622Z,10.43
2023-04-18T13:42:43.636Z,11.02
2023-04-18T13:45:11.196Z,11.27
2023-04-18T13:47:38.369Z,11.38
2023-04-18T13:50:06.505Z,11.73
2023-04-18T13:52:33.472Z,11.45
2023-04-18T13:55:01.074Z,11.68
2023-04-18T13:57:28.451Z,10.68
2023-04-18T13:59:55.585Z,9.23
2023-04-18T14:02:22.903Z,11.48
2023-04-18T14:04:51.756Z,11.23
2023-04-18T14:07:18.805Z,11.63
2023-04-18T14:09:48.162Z,10.88
2023-04-18T14:12:15.280Z,10.93
2023-04-18T14:14:42.283Z,11.23
2023-04-18T14:17:09.249Z,11.73
2023-04-18T14:19:36.607Z,10.70
2023-04-18T14:22:03.614Z,10.20
2023-04-18T14:24:30.619Z,11.23
2023-04-18T14:26:57.507Z,10.00
2023-04-18T14:29:24.559Z,10.13
2023-04-18T14:31:51.524Z,9.68
2023-04-18T14:34:18.558Z,10.18
2023-04-18T14:36:45.616Z,9.48
2023-04-18T14:39:13.244Z,10.07
2023-04-18T14:41:40.454Z,10.27
2023-04-18T14:44:07.408Z,10.65
2023-04-18T14:46:34.484Z,11.10
2023-04-18T14:49:01.499Z,10.80
2023-04-18T14:51:28.434Z,10.70
2023-04-18T14:53:55.627Z,9.60
2023-04-18T14:56:24.242Z,10.27
2023-04-18T14:58:51.303Z,10.27
2023-04-18T15:01:18.602Z,10.27
2023-04-18T15:03:46.092Z,9.63
2023-04-18T15:06:13.343Z,9.98
2023-04-18T15:08:40.587Z,10.23
2023-04-18T15:11:08.239Z,10.27
2023-04-18T15:13:35.825Z,10.25
2023-04-18T15:16:03.222Z,10.30
2023-04-18T15:18:30.327Z,10.80
2023-04-18T15:21:00.033Z,10.98
2023-04-18T15:23:28.290Z,10.70
2023-04-18T15:25:56.322Z,10.70
2023-04-18T15:28:23.345Z,10.30
2023-04-18T15:30:50.516Z,10.43
2023-04-18T15:33:19.071Z,11.43
2023-04-18T15:35:47.756Z,10.85
2023-04-18T15:38:14.848Z,10.50
2023-04-18T15:40:43.433Z,10.65
2023-04-18T15:43:10.570Z,10.52
2023-04-18T15:45:37.564Z,10.05
2023-04-18T15:48:04.852Z,10.75
2023-04-18T15:50:33.638Z,9.95
2023-04-18T15:53:01.922Z,10.35
2023-04-18T15:55:29.007Z,10.00
2023-04-18T15:57:56.267Z,9.60
2023-04-18T16:00:23.959Z,9.60
2023-04-18T16:02:51.331Z,10.00
2023-04-18T16:05:18.545Z,9.43
2023-04-18T16:07:45.764Z,9.82
2023-04-18T16:10:15.069Z,8.80
2023-04-18T16:12:42.191Z,10.13
2023-04-18T16:15:10.060Z,9.77
2023-04-18T16:17:38.037Z,9.55
2023-04-18T16:20:08.264Z,9.98
2023-04-18T16:22:35.929Z,8.55
2023-04-18T16:25:04.527Z,9.20
2023-04-18T16:27:32.220Z,9.05
2023-04-18T16:29:59.306Z,9.18
2023-04-18T16:32:27.614Z,8.85
2023-04-18T16:34:54.664Z,8.88
2023-04-18T16:37:21.769Z,9.15
2023-04-18T16:39:48.723Z,9.05
2023-04-18T16:42:16.411Z,9.05
2023-04-18T16:44:45.158Z,9.02
2023-04-18T16:47:12.167Z,8.65
2023-04-18T16:49:39.435Z,9.50
2023-04-18T16:52:06.441Z,8.88
2023-04-18T16:54:33.460Z,9.05
2023-04-18T16:57:00.854Z,9.07
2023-04-18T16:59:27.883Z,9.63
2023-04-18T17:01:54.994Z,8.52
2023-04-18T17:04:23.144Z,9.35
2023-04-18T17:06:52.197Z,8.90
2023-04-18T17:09:19.754Z,8.77
2023-04-18T17:11:46.947Z,9.18
2023-04-18T17:14:15.029Z,8.80
2023-04-18T17:16:43.055Z,8.38
2023-04-18T17:19:11.131Z,8.77
2023-04-18T17:21:38.461Z,8.55
2023-04-18T17:24:07.043Z,8.15
2023-04-18T17:26:36.884Z,8.77
2023-04-18T17:29:04.773Z,8.63
2023-04-18T17:31:32.531Z,8.60
2023-04-18T17:34:00.713Z,8.40
2023-04-18T17:36:27.963Z,9.02
2023-04-18T17:38:55.966Z,8.73
2023-04-18T17:41:23.225Z,8.93
2023-04-18T17:43:53.320Z,8.15
2023-04-18T17:46:20.443Z,8.10
2023-04-18T17:48:48.592Z,9.07
2023-04-18T17:51:19.329Z,8.57
2023-04-18T17:53:46.875Z,8.57
2023-04-18T17:56:13.854Z,8.05
2023-04-18T17:58:41.222Z,7.82
2023-04-18T18:01:18.773Z,7.75
2023-04-18T18:03:47.213Z,7.72
2023-04-18T18:06:15.574Z,8.00
2023-04-18T18:08:43.272Z,7.47
2023-04-18T18:11:10.866Z,7.32
2023-04-18T18:13:40.851Z,7.70
2023-04-18T18:16:08.804Z,7.57
2023-04-18T18:18:36.837Z,7.80
2023-04-18T18:21:04.014Z,8.20
2023-04-18T18:23:31.307Z,7.72
2023-04-18T18:25:58.367Z,7.47
2023-04-18T18:28:25.454Z,7.60
2023-04-18T18:30:53.513Z,7.60
2023-04-18T18:33:20.756Z,8.35
2023-04-18T18:35:47.664Z,8.00
2023-04-18T18:38:14.608Z,8.27
2023-04-18T18:40:41.640Z,8.68
2023-04-18T18:43:08.655Z,8.25
2023-04-18T18:45:35.636Z,7.95
2023-04-18T18:48:03.954Z,8.18
2023-04-18T18:50:31.043Z,8.77
2023-04-18T18:52:58.027Z,8.50
2023-04-18T18:55:25.038Z,8.32
2023-04-18T18:57:52.008Z,7.38
2023-04-18T19:00:19.406Z,8.25
2023-04-18T19:02:46.649Z,7.80
2023-04-18T19:05:13.934Z,8.25
2023-04-18T19:07:43.813Z,8.18
2023-04-18T19:10:11.173Z,8.40
2023-04-18T19:12:38.357Z,8.40
2023-04-18T19:15:06.479Z,8.45
2023-04-18T19:17:33.581Z,7.88
2023-04-18T19:20:01.615Z,8.38
2023-04-18T19:22:30.023Z,8.52
2023-04-18T19:24:57.453Z,8.30
2023-04-18T19:27:24.442Z,7.78
2023-04-18T19:29:51.474Z,8.18
2023-04-18T19:32:18.549Z,8.38
2023-04-18T19:34:45.713Z,7.82
2023-04-18T19:37:12.726Z,8.82
2023-04-18T19:39:39.754Z,7.70
2023-04-18T19:42:07.400Z,8.13
2023-04-18T19:44:34.897Z,7.72
2023-04-18T19:47:01.978Z,7.70
2023-04-18T19:49:29.116Z,8.57
2023-04-18T19:51:56.213Z,8.40
2023-04-18T19:54:23.127Z,7.82
2023-04-18T19:56:50.479Z,7.78
2023-04-18T19:59:17.435Z,8.60
2023-04-18T20:01:44.660Z,8.15
2023-04-18T20:04:11.904Z,7.32
2023-04-18T20:06:39.030Z,7.85
2023-04-18T20:09:06.289Z,7.85
2023-04-18T20:11:33.573Z,7.63
2023-04-18T20:14:00.997Z,8.13
2023-04-18T20:16:28.082Z,8.05
2023-04-18T20:18:56.038Z,8.20
2023-04-18T20:21:23.054Z,8.32
2023-04-18T20:23:50.015Z,7.93
2023-04-18T20:26:16.917Z,7.65
2023-04-18T20:28:43.969Z,8.32
2023-04-18T20:31:12.218Z,8.13
2023-04-18T20:33:39.415Z,8.18
2023-04-18T20:36:07.452Z,8.05
2023-04-18T20:38:34.618Z,7.82
2023-04-18T20:41:02.091Z,8.45
2023-04-18T20:43:29.089Z,8.50
2023-04-18T20:45:58.625Z,8.25
2023-04-18T20:48:25.810Z,7.70
2023-04-18T20:50:52.860Z,7.13
2023-04-18T20:53:21.736Z,7.57
2023-04-18T20:55:49.145Z,8.20
2023-04-18T20:58:16.198Z,8.02
2023-04-18T21:00:44.587Z,7.82
2023-04-18T21:03:15.843Z,8.23
2023-04-18T21:05:44.929Z,7.63
2023-04-18T21:08:12.101Z,7.75
2023-04-18T21:10:39.692Z,7.53
2023-04-18T21:13:06.792Z,7.72
2023-04-18T21:15:35.595Z,8.10
2023-04-18T21:18:02.848Z,7.93
2023-04-18T21:20:30.043Z,7.68
2023-04-18T21:22:57.009Z,7.93
2023-04-18T21:25:24.018Z,8.02
2023-04-18T21:27:51.264Z,7.70
2023-04-18T21:30:18.305Z,8.20
2023-04-18T21:32:47.197Z,8.32
2023-04-18T21:35:16.046Z,8.07
2023-04-18T21:37:44.183Z,8.10
2023-04-18T21:40:11.538Z,7.75
2023-04-18T21:42:38.580Z,8.30
2023-04-18T21:45:06.545Z,8.30
2023-04-18T21:47:33.519Z,8.40
2023-04-18T21:50:00.491Z,8.40
2023-04-18T21:52:27.413Z,8.13
2023-04-18T21:54:54.448Z,9.27
2023-04-18T21:57:21.733Z,8.73
2023-04-18T21:59:48.784Z,9.18
2023-04-18T22:02:15.957Z,9.07
2023-04-18T22:04:44.129Z,8.88
2023-04-18T22:07:12.407Z,9.77
2023-04-18T22:09:39.830Z,8.60
2023-04-18T22:12:07.701Z,9.48
2023-04-18T22:14:35.180Z,9.68
2023-04-18T22:17:04.705Z,9.52
2023-04-18T22:19:32.381Z,9.88
2023-04-18T22:21:59.359Z,9.35
2023-04-18T22:24:26.344Z,9.60
2023-04-18T22:26:53.722Z,9.82
2023-04-18T22:29:20.890Z,10.48
2023-04-18T22:31:47.805Z,9.65
2023-04-18T22:34:14.972Z,10.10
2023-04-18T22:36:42.747Z,10.13
2023-04-18T22:39:09.870Z,9.70
2023-04-18T22:41:36.912Z,9.70
2023-04-18T22:44:04.707Z,9.93
2023-04-18T22:46:32.837Z,10.18
2023-04-18T22:49:00.051Z,9.77
2023-04-18T22:51:28.640Z,9.55
2023-04-18T22:53:56.513Z,9.48
2023-04-18T22:56:23.658Z,9.55
2023-04-18T22:58:50.968Z,10.05
2023-04-18T23:01:18.491Z,9.35
2023-04-18T23:03:45.915Z,9.93
2023-04-18T23:06:12.980Z,9.63
2023-04-18T23:08:39.965Z,9.63
2023-04-18T23:11:06.905Z,9.10
2023-04-18T23:13:33.861Z,9.63
2023-04-18T23:16:00.888Z,9.02
2023-04-18T23:18:30.742Z,9.48
2023-04-18T23:20:59.753Z,9.30
2023-04-18T23:23:27.001Z,9.32
2023-04-18T23:25:53.992Z,8.98
2023-04-18T23:28:21.362Z,9.20
2023-04-18T23:30:50.110Z,9.02
2023-04-18T23:33:17.136Z,9.52
2023-04-18T23:35:44.236Z,9.05
2023-04-18T23:38:11.211Z,8.98
2023-04-18T23:40:38.161Z,8.90
2023-04-18T23:43:05.136Z,9.40
2023-04-18T23:45:32.181Z,9.70
2023-04-18T23:47:59.163Z,9.63
2023-04-18T23:50:26.353Z,10.25
2023-04-18T23:52:53.352Z,8.82
2023-04-18T23:55:20.465Z,9.55
2023-04-18T23:57:47.404Z,9.75
